sensor_id;sensor_type;location;lat;lon;timestamp;pressure;altitude;pressure_sealevel;temperature;humidity
44457;BME280;30159;49.316;8.558;2024-01-07T00:01:46;99944.59;;;5.19;100.00
44457;BME280;30159;49.316;8.558;2024-01-07T00:04:14;99941.88;;;5.14;100.00
44457;BME280;30159;49.316;8.558;2024-01-07T00:06:41;99934.56;;;5.04;100.00
44457;BME280;30159;49.316;8.558;2024-01-07T00:09:07;99944.50;;;5.09;100.00
44457;BME280;30159;49.316;8.558;2024-01-07T00:11:34;99912.25;;;4.89;100.00
44457;BME280;30159;49.316;8.558;2024-01-07T00:14:01;99941.03;;;5.09;100.00
44457;BME280;30159;49.316;8.558;2024-01-07T00:16:27;99918.19;;;4.96;100.00
44457;BME280;30159;49.316;8.558;2024-01-07T00:18:54;99949.91;;;5.14;100.00
44457;BME280;30159;49.316;8.558;2024-01-07T00:21:22;99937.69;;;5.23;100.00
44457;BME280;30159;49.316;8.558;2024-01-07T00:23:49;99945.75;;;5.34;100.00
44457;BME280;30159;49.316;8.558;2024-01-07T00:26:16;99954.88;;;5.33;100.00
44457;BME280;30159;49.316;8.558;2024-01-07T00:28:42;99950.50;;;5.21;100.00
44457;BME280;30159;49.316;8.558;2024-01-07T00:31:11;99958.78;;;5.20;100.00
44457;BME280;30159;49.316;8.558;2024-01-07T00:33:37;99960.41;;;5.26;100.00
44457;BME280;30159;49.316;8.558;2024-01-07T00:36:05;99956.63;;;5.22;100.00
44457;BME280;30159;49.316;8.558;2024-01-07T00:38:33;99955.03;;;5.21;100.00
44457;BME280;30159;49.316;8.558;2024-01-07T00:40:59;99961.16;;;5.16;100.00
44457;BME280;30159;49.316;8.558;2024-01-07T00:43:26;99956.38;;;5.23;100.00
44457;BME280;30159;49.316;8.558;2024-01-07T00:45:52;99960.72;;;5.30;100.00
44457;BME280;30159;49.316;8.558;2024-01-07T00:48:19;99965.22;;;5.24;100.00
44457;BME280;30159;49.316;8.558;2024-01-07T00:50:45;99972.44;;;5.23;100.00
44457;BME280;30159;49.316;8.558;2024-01-07T00:53:12;99958.03;;;5.24;100.00
44457;BME280;30159;49.316;8.558;2024-01-07T00:55:40;99966.84;;;5.25;100.00
44457;BME280;30159;49.316;8.558;2024-01-07T00:58:07;99967.41;;;5.27;100.00
44457;BME280;30159;49.316;8.558;2024-01-07T01:00:33;99987.78;;;5.38;100.00
44457;BME280;30159;49.316;8.558;2024-01-07T01:03:00;99890.28;;;4.81;100.00
44457;BME280;30159;49.316;8.558;2024-01-07T01:05:26;99970.84;;;5.22;100.00
44457;BME280;30159;49.316;8.558;2024-01-07T01:07:53;99976.38;;;5.16;100.00
44457;BME280;30159;49.316;8.558;2024-01-07T01:10:20;99972.63;;;5.17;100.00
44457;BME280;30159;49.316;8.558;2024-01-07T01:12:48;99946.53;;;4.97;100.00
44457;BME280;30159;49.316;8.558;2024-01-07T01:15:14;99978.56;;;5.24;100.00
44457;BME280;30159;49.316;8.558;2024-01-07T01:17:41;99979.91;;;5.21;100.00
44457;BME280;30159;49.316;8.558;2024-01-07T01:20:09;99980.16;;;5.20;100.00
44457;BME280;30159;49.316;8.558;2024-01-07T01:22:36;99973.13;;;5.09;100.00
44457;BME280;30159;49.316;8.558;2024-01-07T01:25:03;99998.38;;;5.23;100.00
44457;BME280;30159;49.316;8.558;2024-01-07T01:27:30;99979.06;;;5.16;100.00
44457;BME280;30159;49.316;8.558;2024-01-07T01:29:58;99974.53;;;5.21;100.00
44457;BME280;30159;49.316;8.558;2024-01-07T01:32:25;99983.75;;;5.36;100.00
44457;BME280;30159;49.316;8.558;2024-01-07T01:34:51;99991.22;;;5.34;100.00
44457;BME280;30159;49.316;8.558;2024-01-07T01:37:18;99984.19;;;5.22;100.00
44457;BME280;30159;49.316;8.558;2024-01-07T01:39:44;99986.03;;;5.22;100.00
44457;BME280;30159;49.316;8.558;2024-01-07T01:42:11;100003.19;;;5.26;100.00
44457;BME280;30159;49.316;8.558;2024-01-07T01:44:38;99995.13;;;5.21;100.00
44457;BME280;30159;49.316;8.558;2024-01-07T01:47:06;99992.66;;;5.14;100.00
44457;BME280;30159;49.316;8.558;2024-01-07T01:49:33;99987.84;;;5.11;100.00
44457;BME280;30159;49.316;8.558;2024-01-07T01:52:02;99997.47;;;5.12;100.00
44457;BME280;30159;49.316;8.558;2024-01-07T01:54:29;99990.47;;;5.06;100.00
44457;BME280;30159;49.316;8.558;2024-01-07T01:56:56;99810.22;;;3.78;100.00
44457;BME280;30159;49.316;8.558;2024-01-07T01:59:24;99991.50;;;5.05;100.00
44457;BME280;30159;49.316;8.558;2024-01-07T02:01:52;99968.94;;;4.91;100.00
44457;BME280;30159;49.316;8.558;2024-01-07T02:04:20;99989.38;;;5.07;100.00
44457;BME280;30159;49.316;8.558;2024-01-07T02:06:46;100014.81;;;5.10;100.00
44457;BME280;30159;49.316;8.558;2024-01-07T02:09:13;99983.72;;;5.03;100.00
44457;BME280;30159;49.316;8.558;2024-01-07T02:11:39;99966.75;;;4.88;100.00
44457;BME280;30159;49.316;8.558;2024-01-07T02:14:06;100000.41;;;5.11;100.00
44457;BME280;30159;49.316;8.558;2024-01-07T02:16:33;99997.22;;;5.14;100.00
44457;BME280;30159;49.316;8.558;2024-01-07T02:18:59;100005.00;;;5.15;100.00
44457;BME280;30159;49.316;8.558;2024-01-07T02:21:27;100003.31;;;5.09;100.00
44457;BME280;30159;49.316;8.558;2024-01-07T02:23:54;100013.50;;;5.12;100.00
44457;BME280;30159;49.316;8.558;2024-01-07T02:26:22;100012.44;;;5.13;100.00
44457;BME280;30159;49.316;8.558;2024-01-07T02:28:48;100000.72;;;5.19;100.00
44457;BME280;30159;49.316;8.558;2024-01-07T02:31:15;100006.44;;;5.28;100.00
44457;BME280;30159;49.316;8.558;2024-01-07T02:33:41;99849.50;;;4.10;100.00
44457;BME280;30159;49.316;8.558;2024-01-07T02:36:08;100009.84;;;5.23;100.00
44457;BME280;30159;49.316;8.558;2024-01-07T02:38:35;100007.75;;;5.25;100.00
44457;BME280;30159;49.316;8.558;2024-01-07T02:41:01;100003.97;;;5.21;100.00
44457;BME280;30159;49.316;8.558;2024-01-07T02:43:29;99998.47;;;5.06;100.00
44457;BME280;30159;49.316;8.558;2024-01-07T02:45:56;100004.88;;;5.05;100.00
44457;BME280;30159;49.316;8.558;2024-01-07T02:48:23;100001.00;;;4.91;100.00
44457;BME280;30159;49.316;8.558;2024-01-07T02:50:50;100005.22;;;4.86;100.00
44457;BME280;30159;49.316;8.558;2024-01-07T02:53:16;99966.00;;;4.65;100.00
44457;BME280;30159;49.316;8.558;2024-01-07T02:55:43;100005.22;;;4.86;100.00
44457;BME280;30159;49.316;8.558;2024-01-07T02:58:09;100002.50;;;4.81;100.00
44457;BME280;30159;49.316;8.558;2024-01-07T03:00:37;100003.00;;;4.78;100.00
44457;BME280;30159;49.316;8.558;2024-01-07T03:03:04;100007.78;;;4.76;100.00
44457;BME280;30159;49.316;8.558;2024-01-07T03:05:31;99999.25;;;4.79;100.00
44457;BME280;30159;49.316;8.558;2024-01-07T03:07:58;99999.44;;;4.73;100.00
44457;BME280;30159;49.316;8.558;2024-01-07T03:10:25;100006.09;;;4.70;100.00
44457;BME280;30159;49.316;8.558;2024-01-07T03:12:51;100008.47;;;4.67;100.00
44457;BME280;30159;49.316;8.558;2024-01-07T03:15:18;99997.94;;;4.55;100.00
44457;BME280;30159;49.316;8.558;2024-01-07T03:17:46;100010.31;;;4.66;100.00
44457;BME280;30159;49.316;8.558;2024-01-07T03:20:13;100015.19;;;4.69;100.00
44457;BME280;30159;49.316;8.558;2024-01-07T03:22:40;100012.81;;;4.73;100.00
44457;BME280;30159;49.316;8.558;2024-01-07T03:25:07;100013.13;;;4.76;100.00
44457;BME280;30159;49.316;8.558;2024-01-07T03:27:34;100012.94;;;4.83;100.00
44457;BME280;30159;49.316;8.558;2024-01-07T03:30:00;100017.25;;;4.89;100.00
44457;BME280;30159;49.316;8.558;2024-01-07T03:32:27;100012.66;;;4.84;100.00
44457;BME280;30159;49.316;8.558;2024-01-07T03:34:55;100021.06;;;4.93;100.00
44457;BME280;30159;49.316;8.558;2024-01-07T03:37:22;100015.50;;;5.00;100.00
44457;BME280;30159;49.316;8.558;2024-01-07T03:39:48;100008.63;;;5.04;100.00
44457;BME280;30159;49.316;8.558;2024-01-07T03:42:15;100015.19;;;4.96;100.00
44457;BME280;30159;49.316;8.558;2024-01-07T03:44:42;100014.88;;;4.88;100.00
44457;BME280;30159;49.316;8.558;2024-01-07T03:47:08;100022.56;;;4.84;100.00
44457;BME280;30159;49.316;8.558;2024-01-07T03:49:36;100026.63;;;4.92;100.00
44457;BME280;30159;49.316;8.558;2024-01-07T03:52:05;100025.88;;;4.96;100.00
44457;BME280;30159;49.316;8.558;2024-01-07T03:54:32;100027.75;;;4.96;100.00
44457;BME280;30159;49.316;8.558;2024-01-07T03:56:59;100034.97;;;4.95;100.00
44457;BME280;30159;49.316;8.558;2024-01-07T03:59:25;100027.91;;;4.84;100.00
44457;BME280;30159;49.316;8.558;2024-01-07T04:01:53;100035.91;;;4.84;100.00
44457;BME280;30159;49.316;8.558;2024-01-07T04:04:20;100030.81;;;4.82;100.00
44457;BME280;30159;49.316;8.558;2024-01-07T04:06:47;100030.81;;;4.82;100.00
44457;BME280;30159;49.316;8.558;2024-01-07T04:09:15;99961.91;;;4.35;100.00
44457;BME280;30159;49.316;8.558;2024-01-07T04:11:42;100019.84;;;4.79;100.00
44457;BME280;30159;49.316;8.558;2024-01-07T04:14:09;100022.47;;;4.74;100.00
44457;BME280;30159;49.316;8.558;2024-01-07T04:16:36;100023.88;;;4.81;100.00
44457;BME280;30159;49.316;8.558;2024-01-07T04:19:02;100042.66;;;4.92;100.00
44457;BME280;30159;49.316;8.558;2024-01-07T04:21:29;100042.16;;;4.90;100.00
44457;BME280;30159;49.316;8.558;2024-01-07T04:23:55;100040.50;;;4.89;100.00
44457;BME280;30159;49.316;8.558;2024-01-07T04:26:23;100050.78;;;4.97;100.00
44457;BME280;30159;49.316;8.558;2024-01-07T04:28:50;100052.31;;;4.93;100.00
44457;BME280;30159;49.316;8.558;2024-01-07T04:31:17;100053.91;;;4.94;100.00
44457;BME280;30159;49.316;8.558;2024-01-07T04:33:43;100052.31;;;4.93;100.00
44457;BME280;30159;49.316;8.558;2024-01-07T04:36:10;100058.78;;;4.97;100.00
44457;BME280;30159;49.316;8.558;2024-01-07T04:38:36;100062.31;;;5.02;100.00
44457;BME280;30159;49.316;8.558;2024-01-07T04:41:03;100065.31;;;5.06;100.00
44457;BME280;30159;49.316;8.558;2024-01-07T04:43:36;100061.59;;;5.12;100.00
44457;BME280;30159;49.316;8.558;2024-01-07T04:46:03;100057.28;;;5.06;100.00
44457;BME280;30159;49.316;8.558;2024-01-07T04:48:30;100068.59;;;5.13;100.00
44457;BME280;30159;49.316;8.558;2024-01-07T04:50:56;100068.91;;;5.22;100.00
44457;BME280;30159;49.316;8.558;2024-01-07T04:53:23;100076.34;;;5.15;100.00
44457;BME280;30159;49.316;8.558;2024-01-07T04:55:49;100073.84;;;5.08;100.00
44457;BME280;30159;49.316;8.558;2024-01-07T04:58:16;100059.22;;;4.89;100.00
44457;BME280;30159;49.316;8.558;2024-01-07T05:00:44;100066.34;;;5.05;100.00
44457;BME280;30159;49.316;8.558;2024-01-07T05:03:10;100089.53;;;4.99;100.00
44457;BME280;30159;49.316;8.558;2024-01-07T05:05:37;100081.72;;;4.93;100.00
44457;BME280;30159;49.316;8.558;2024-01-07T05:08:04;100087.13;;;4.98;100.00
44457;BME280;30159;49.316;8.558;2024-01-07T05:10:31;100086.81;;;4.94;100.00
44457;BME280;30159;49.316;8.558;2024-01-07T05:12:58;100087.16;;;5.03;100.00
44457;BME280;30159;49.316;8.558;2024-01-07T05:15:30;100086.06;;;4.99;100.00
44457;BME280;30159;49.316;8.558;2024-01-07T05:17:58;100080.03;;;4.86;100.00
44457;BME280;30159;49.316;8.558;2024-01-07T05:20:25;99941.34;;;3.92;100.00
44457;BME280;30159;49.316;8.558;2024-01-07T05:22:51;100103.84;;;4.88;100.00
44457;BME280;30159;49.316;8.558;2024-01-07T05:25:18;100088.59;;;4.89;100.00
44457;BME280;30159;49.316;8.558;2024-01-07T05:27:44;100075.69;;;4.80;100.00
44457;BME280;30159;49.316;8.558;2024-01-07T05:30:12;100042.25;;;4.56;100.00
44457;BME280;30159;49.316;8.558;2024-01-07T05:32:38;100103.59;;;4.90;100.00
44457;BME280;30159;49.316;8.558;2024-01-07T05:35:07;100100.41;;;4.93;100.00
44457;BME280;30159;49.316;8.558;2024-01-07T05:37:34;100101.41;;;4.86;100.00
44457;BME280;30159;49.316;8.558;2024-01-07T05:40:02;100100.03;;;4.84;100.00
44457;BME280;30159;49.316;8.558;2024-01-07T05:42:28;100104.19;;;4.75;100.00
44457;BME280;30159;49.316;8.558;2024-01-07T05:44:55;100103.16;;;4.76;100.00
44457;BME280;30159;49.316;8.558;2024-01-07T05:47:21;100109.59;;;4.80;100.00
44457;BME280;30159;49.316;8.558;2024-01-07T05:49:48;100099.88;;;4.69;100.00
44457;BME280;30159;49.316;8.558;2024-01-07T05:52:18;100109.38;;;4.81;100.00
44457;BME280;30159;49.316;8.558;2024-01-07T05:54:45;100109.38;;;4.81;100.00
44457;BME280;30159;49.316;8.558;2024-01-07T05:57:12;100112.47;;;4.73;100.00
44457;BME280;30159;49.316;8.558;2024-01-07T05:59:38;100067.78;;;4.47;100.00
44457;BME280;30159;49.316;8.558;2024-01-07T06:02:05;100104.66;;;4.67;100.00
44457;BME280;30159;49.316;8.558;2024-01-07T06:04:31;100121.34;;;4.79;100.00
44457;BME280;30159;49.316;8.558;2024-01-07T06:06:58;100114.66;;;4.76;100.00
44457;BME280;30159;49.316;8.558;2024-01-07T06:09:26;100116.00;;;4.79;100.00
44457;BME280;30159;49.316;8.558;2024-01-07T06:11:53;100120.50;;;4.73;100.00
44457;BME280;30159;49.316;8.558;2024-01-07T06:14:19;100122.59;;;4.71;100.00
44457;BME280;30159;49.316;8.558;2024-01-07T06:16:46;100127.94;;;4.71;100.00
44457;BME280;30159;49.316;8.558;2024-01-07T06:19:12;99976.47;;;3.67;100.00
44457;BME280;30159;49.316;8.558;2024-01-07T06:21:40;100131.34;;;4.67;100.00
44457;BME280;30159;49.316;8.558;2024-01-07T06:24:07;100138.53;;;4.66;100.00
44457;BME280;30159;49.316;8.558;2024-01-07T06:26:35;100136.19;;;4.70;100.00
44457;BME280;30159;49.316;8.558;2024-01-07T06:29:02;100143.41;;;4.69;100.00
44457;BME280;30159;49.316;8.558;2024-01-07T06:31:29;100141.88;;;4.73;100.00
44457;BME280;30159;49.316;8.558;2024-01-07T06:33:55;100148.81;;;4.74;100.00
44457;BME280;30159;49.316;8.558;2024-01-07T06:36:23;100149.88;;;4.73;100.00
44457;BME280;30159;49.316;8.558;2024-01-07T06:38:49;100140.16;;;4.67;100.00
44457;BME280;30159;49.316;8.558;2024-01-07T06:41:16;100159.56;;;4.79;100.00
44457;BME280;30159;49.316;8.558;2024-01-07T06:43:44;100169.22;;;4.80;100.00
44457;BME280;30159;49.316;8.558;2024-01-07T06:46:11;100152.56;;;4.73;100.00
44457;BME280;30159;49.316;8.558;2024-01-07T06:48:38;100171.00;;;4.75;100.00
44457;BME280;30159;49.316;8.558;2024-01-07T06:51:05;100162.97;;;4.75;100.00
44457;BME280;30159;49.316;8.558;2024-01-07T06:53:31;100147.63;;;4.65;100.00
44457;BME280;30159;49.316;8.558;2024-01-07T06:55:58;100164.78;;;4.69;100.00
44457;BME280;30159;49.316;8.558;2024-01-07T06:58:25;100173.34;;;4.71;100.00
44457;BME280;30159;49.316;8.558;2024-01-07T07:00:52;100151.88;;;4.44;100.00
44457;BME280;30159;49.316;8.558;2024-01-07T07:03:19;100176.25;;;4.70;100.00
44457;BME280;30159;49.316;8.558;2024-01-07T07:05:46;100175.31;;;4.59;100.00
44457;BME280;30159;49.316;8.558;2024-01-07T07:08:14;100184.22;;;4.64;100.00
44457;BME280;30159;49.316;8.558;2024-01-07T07:10:41;100187.28;;;4.73;100.00
44457;BME280;30159;49.316;8.558;2024-01-07T07:13:08;100186.78;;;4.76;100.00
44457;BME280;30159;49.316;8.558;2024-01-07T07:15:35;100190.31;;;4.82;100.00
44457;BME280;30159;49.316;8.558;2024-01-07T07:18:03;100194.88;;;4.81;100.00
44457;BME280;30159;49.316;8.558;2024-01-07T07:20:30;100197.59;;;4.86;100.00
44457;BME280;30159;49.316;8.558;2024-01-07T07:22:56;100205.88;;;4.85;100.00
44457;BME280;30159;49.316;8.558;2024-01-07T07:25:23;100205.06;;;4.84;100.00
44457;BME280;30159;49.316;8.558;2024-01-07T07:27:50;100210.91;;;4.81;100.00
44457;BME280;30159;49.316;8.558;2024-01-07T07:30:16;100205.06;;;4.84;100.00
44457;BME280;30159;49.316;8.558;2024-01-07T07:32:43;100214.13;;;4.83;100.00
44457;BME280;30159;49.316;8.558;2024-01-07T07:35:11;100213.00;;;4.79;100.00
44457;BME280;30159;49.316;8.558;2024-01-07T07:37:38;100221.28;;;4.78;100.00
44457;BME280;30159;49.316;8.558;2024-01-07T07:40:05;100222.56;;;4.75;100.00
44457;BME280;30159;49.316;8.558;2024-01-07T07:42:32;100224.03;;;4.83;100.00
44457;BME280;30159;49.316;8.558;2024-01-07T07:44:59;100231.63;;;4.74;100.00
44457;BME280;30159;49.316;8.558;2024-01-07T07:47:27;100232.28;;;4.81;100.00
44457;BME280;30159;49.316;8.558;2024-01-07T07:49:54;100230.91;;;4.79;100.00
44457;BME280;30159;49.316;8.558;2024-01-07T07:52:22;100224.34;;;4.70;100.00
44457;BME280;30159;49.316;8.558;2024-01-07T07:54:50;100243.75;;;4.82;100.00
44457;BME280;30159;49.316;8.558;2024-01-07T07:57:17;100245.97;;;4.85;100.00
44457;BME280;30159;49.316;8.558;2024-01-07T07:59:45;100253.41;;;4.83;100.00
44457;BME280;30159;49.316;8.558;2024-01-07T08:02:12;100248.88;;;4.83;100.00
44457;BME280;30159;49.316;8.558;2024-01-07T08:04:39;100236.47;;;4.77;100.00
44457;BME280;30159;49.316;8.558;2024-01-07T08:07:06;100246.03;;;4.90;100.00
44457;BME280;30159;49.316;8.558;2024-01-07T08:09:34;100253.88;;;4.97;100.00
44457;BME280;30159;49.316;8.558;2024-01-07T08:12:02;100235.81;;;4.87;100.00
44457;BME280;30159;49.316;8.558;2024-01-07T08:14:29;100250.78;;;5.05;100.00
44457;BME280;30159;49.316;8.558;2024-01-07T08:16:56;100254.06;;;5.12;100.00
44457;BME280;30159;49.316;8.558;2024-01-07T08:19:22;100250.50;;;5.23;100.00
44457;BME280;30159;49.316;8.558;2024-01-07T08:21:49;100261.75;;;5.25;100.00
44457;BME280;30159;49.316;8.558;2024-01-07T08:24:16;100257.03;;;5.11;100.00
44457;BME280;30159;49.316;8.558;2024-01-07T08:26:44;100267.78;;;5.16;100.00
44457;BME280;30159;49.316;8.558;2024-01-07T08:29:10;100250.03;;;5.10;100.00
44457;BME280;30159;49.316;8.558;2024-01-07T08:31:40;100255.09;;;5.06;100.00
44457;BME280;30159;49.316;8.558;2024-01-07T08:34:07;100274.25;;;5.20;100.00
44457;BME280;30159;49.316;8.558;2024-01-07T08:36:34;100252.47;;;5.11;100.00
44457;BME280;30159;49.316;8.558;2024-01-07T08:39:00;100274.00;;;5.21;100.00
44457;BME280;30159;49.316;8.558;2024-01-07T08:41:27;100268.69;;;5.26;100.00
44457;BME280;30159;49.316;8.558;2024-01-07T08:43:55;100250.84;;;5.10;100.00
44457;BME280;30159;49.316;8.558;2024-01-07T08:46:21;100281.53;;;5.24;100.00
44457;BME280;30159;49.316;8.558;2024-01-07T08:48:48;100289.34;;;5.31;100.00
44457;BME280;30159;49.316;8.558;2024-01-07T08:51:15;100280.75;;;5.29;100.00
44457;BME280;30159;49.316;8.558;2024-01-07T08:53:41;100296.16;;;5.39;100.00
44457;BME280;30159;49.316;8.558;2024-01-07T08:56:08;100273.81;;;5.28;100.00
44457;BME280;30159;49.316;8.558;2024-01-07T08:58:35;100283.41;;;5.46;100.00
44457;BME280;30159;49.316;8.558;2024-01-07T09:01:03;100285.91;;;5.53;100.00
44457;BME280;30159;49.316;8.558;2024-01-07T09:03:30;100304.25;;;5.66;100.00
44457;BME280;30159;49.316;8.558;2024-01-07T09:05:56;100311.66;;;5.81;100.00
44457;BME280;30159;49.316;8.558;2024-01-07T09:08:22;100290.75;;;5.78;100.00
44457;BME280;30159;49.316;8.558;2024-01-07T09:10:49;100312.13;;;5.95;100.00
44457;BME280;30159;49.316;8.558;2024-01-07T09:13:16;100313.97;;;5.94;100.00
44457;BME280;30159;49.316;8.558;2024-01-07T09:15:42;100329.66;;;5.85;100.00
44457;BME280;30159;49.316;8.558;2024-01-07T09:18:10;100269.97;;;5.41;100.00
44457;BME280;30159;49.316;8.558;2024-01-07T09:20:38;100319.88;;;5.74;100.00
44457;BME280;30159;49.316;8.558;2024-01-07T09:23:04;100321.59;;;5.63;100.00
44457;BME280;30159;49.316;8.558;2024-01-07T09:25:31;100338.50;;;5.86;100.00
44457;BME280;30159;49.316;8.558;2024-01-07T09:27:57;100338.78;;;5.89;100.00
44457;BME280;30159;49.316;8.558;2024-01-07T09:30:24;100315.34;;;5.75;100.00
44457;BME280;30159;49.316;8.558;2024-01-07T09:32:50;100333.88;;;6.03;100.00
44457;BME280;30159;49.316;8.558;2024-01-07T09:35:19;100341.88;;;5.98;100.00
44457;BME280;30159;49.316;8.558;2024-01-07T09:37:45;100334.91;;;5.97;100.00
44457;BME280;30159;49.316;8.558;2024-01-07T09:40:17;100339.69;;;5.95;100.00
44457;BME280;30159;49.316;8.558;2024-01-07T09:42:44;100339.25;;;6.03;100.00
44457;BME280;30159;49.316;8.558;2024-01-07T09:45:12;100348.53;;;5.96;100.00
44457;BME280;30159;49.316;8.558;2024-01-07T09:47:39;100340.88;;;6.04;100.00
44457;BME280;30159;49.316;8.558;2024-01-07T09:50:07;100354.09;;;5.72;100.00
44457;BME280;30159;49.316;8.558;2024-01-07T09:52:37;100353.34;;;5.77;100.00
44457;BME280;30159;49.316;8.558;2024-01-07T09:55:07;100346.72;;;6.01;100.00
44457;BME280;30159;49.316;8.558;2024-01-07T09:57:37;100342.16;;;5.80;100.00
44457;BME280;30159;49.316;8.558;2024-01-07T10:00:07;100352.44;;;5.88;100.00
44457;BME280;30159;49.316;8.558;2024-01-07T10:02:35;100337.72;;;5.68;100.00
44457;BME280;30159;49.316;8.558;2024-01-07T10:05:03;100363.63;;;5.85;100.00
44457;BME280;30159;49.316;8.558;2024-01-07T10:07:29;100340.16;;;5.70;100.00
44457;BME280;30159;49.316;8.558;2024-01-07T10:09:57;100353.47;;;5.87;100.00
44457;BME280;30159;49.316;8.558;2024-01-07T10:12:24;100362.78;;;6.01;100.00
44457;BME280;30159;49.316;8.558;2024-01-07T10:14:51;100376.53;;;6.10;99.15
44457;BME280;30159;49.316;8.558;2024-01-07T10:17:18;100371.03;;;5.95;92.81
44457;BME280;30159;49.316;8.558;2024-01-07T10:19:45;100367.50;;;5.94;93.76
44457;BME280;30159;49.316;8.558;2024-01-07T10:22:13;100344.09;;;5.62;92.28
44457;BME280;30159;49.316;8.558;2024-01-07T10:24:42;100358.09;;;5.69;93.36
44457;BME280;30159;49.316;8.558;2024-01-07T10:27:11;100376.69;;;5.81;93.66
44457;BME280;30159;49.316;8.558;2024-01-07T10:29:38;100360.50;;;5.71;94.29
44457;BME280;30159;49.316;8.558;2024-01-07T10:32:05;100390.66;;;5.83;95.46
44457;BME280;30159;49.316;8.558;2024-01-07T10:34:33;100376.31;;;5.73;100.00
44457;BME280;30159;49.316;8.558;2024-01-07T10:37:01;100367.53;;;5.55;100.00
44457;BME280;30159;49.316;8.558;2024-01-07T10:39:29;100390.63;;;5.44;100.00
44457;BME280;30159;49.316;8.558;2024-01-07T10:41:56;100387.72;;;5.29;100.00
44457;BME280;30159;49.316;8.558;2024-01-07T10:44:25;100381.34;;;5.30;100.00
44457;BME280;30159;49.316;8.558;2024-01-07T10:46:53;100396.16;;;5.38;100.00
44457;BME280;30159;49.316;8.558;2024-01-07T10:49:24;100386.59;;;5.42;100.00
44457;BME280;30159;49.316;8.558;2024-01-07T10:51:59;100394.53;;;5.54;100.00
44457;BME280;30159;49.316;8.558;2024-01-07T10:54:29;100388.38;;;5.53;100.00
44457;BME280;30159;49.316;8.558;2024-01-07T10:56:58;100399.31;;;5.52;100.00
44457;BME280;30159;49.316;8.558;2024-01-07T10:59:27;100397.78;;;5.39;100.00
44457;BME280;30159;49.316;8.558;2024-01-07T11:01:55;100410.91;;;5.23;100.00
44457;BME280;30159;49.316;8.558;2024-01-07T11:04:24;100410.91;;;5.23;100.00
44457;BME280;30159;49.316;8.558;2024-01-07T11:07:01;100414.56;;;5.34;100.00
44457;BME280;30159;49.316;8.558;2024-01-07T11:09:35;100406.38;;;5.24;100.00
44457;BME280;30159;49.316;8.558;2024-01-07T11:12:04;100411.63;;;5.36;100.00
44457;BME280;30159;49.316;8.558;2024-01-07T11:14:37;100398.53;;;5.34;100.00
44457;BME280;30159;49.316;8.558;2024-01-07T11:17:05;100402.88;;;5.40;100.00
44457;BME280;30159;49.316;8.558;2024-01-07T11:19:32;100398.66;;;5.44;100.00
44457;BME280;30159;49.316;8.558;2024-01-07T11:22:21;100401.97;;;5.52;100.00
44457;BME280;30159;49.316;8.558;2024-01-07T11:24:49;100395.25;;;5.49;96.16
44457;BME280;30159;49.316;8.558;2024-01-07T11:27:16;100401.81;;;5.58;94.32
44457;BME280;30159;49.316;8.558;2024-01-07T11:29:44;100401.94;;;5.68;91.44
44457;BME280;30159;49.316;8.558;2024-01-07T11:32:12;100381.47;;;5.57;90.95
44457;BME280;30159;49.316;8.558;2024-01-07T11:34:40;100381.66;;;5.51;90.30
44457;BME280;30159;49.316;8.558;2024-01-07T11:37:10;100403.97;;;5.61;88.88
44457;BME280;30159;49.316;8.558;2024-01-07T11:39:37;100412.00;;;5.61;95.52
44457;BME280;30159;49.316;8.558;2024-01-07T11:42:04;100377.78;;;5.41;100.00
44457;BME280;30159;49.316;8.558;2024-01-07T11:44:34;100415.94;;;5.37;100.00
44457;BME280;30159;49.316;8.558;2024-01-07T11:47:02;100405.72;;;5.17;100.00
44457;BME280;30159;49.316;8.558;2024-01-07T11:49:29;100393.44;;;4.99;100.00
44457;BME280;30159;49.316;8.558;2024-01-07T11:51:55;100402.25;;;4.99;100.00
44457;BME280;30159;49.316;8.558;2024-01-07T11:54:22;100400.75;;;4.92;100.00
44457;BME280;30159;49.316;8.558;2024-01-07T11:56:49;100417.44;;;4.82;100.00
44457;BME280;30159;49.316;8.558;2024-01-07T11:59:15;100396.94;;;4.71;100.00
44457;BME280;30159;49.316;8.558;2024-01-07T12:01:42;100415.09;;;4.69;100.00
44457;BME280;30159;49.316;8.558;2024-01-07T12:04:10;100411.94;;;4.72;100.00
44457;BME280;30159;49.316;8.558;2024-01-07T12:06:38;100410.63;;;4.74;100.00
44457;BME280;30159;49.316;8.558;2024-01-07T12:09:04;100419.66;;;4.56;100.00
44457;BME280;30159;49.316;8.558;2024-01-07T12:11:31;100423.13;;;4.57;100.00
44457;BME280;30159;49.316;8.558;2024-01-07T12:13:58;100366.59;;;4.31;100.00
44457;BME280;30159;49.316;8.558;2024-01-07T12:16:25;100418.13;;;4.60;100.00
44457;BME280;30159;49.316;8.558;2024-01-07T12:18:52;100421.03;;;4.59;100.00
44457;BME280;30159;49.316;8.558;2024-01-07T12:21:20;100417.66;;;4.63;100.00
44457;BME280;30159;49.316;8.558;2024-01-07T12:23:48;100396.41;;;4.57;100.00
44457;BME280;30159;49.316;8.558;2024-01-07T12:26:15;100412.66;;;4.67;100.00
44457;BME280;30159;49.316;8.558;2024-01-07T12:28:44;100420.94;;;4.54;100.00
44457;BME280;30159;49.316;8.558;2024-01-07T12:31:11;100415.78;;;4.35;100.00
44457;BME280;30159;49.316;8.558;2024-01-07T12:33:38;100429.53;;;4.56;100.00
44457;BME280;30159;49.316;8.558;2024-01-07T12:36:06;100390.28;;;4.28;100.00
44457;BME280;30159;49.316;8.558;2024-01-07T12:38:36;100406.28;;;4.28;100.00
44457;BME280;30159;49.316;8.558;2024-01-07T12:41:03;100432.28;;;4.32;100.00
44457;BME280;30159;49.316;8.558;2024-01-07T12:43:30;100437.53;;;4.27;100.00
44457;BME280;30159;49.316;8.558;2024-01-07T12:45:57;100437.44;;;4.22;100.00
44457;BME280;30159;49.316;8.558;2024-01-07T12:48:29;100424.69;;;4.00;100.00
44457;BME280;30159;49.316;8.558;2024-01-07T12:50:56;100438.00;;;4.12;100.00
44457;BME280;30159;49.316;8.558;2024-01-07T12:53:22;100441.63;;;4.18;100.00